Skip Navigation LinksHome page > Weather > Current weather Skip Navigation Links

Current Weather

Moundou, Chad

For information only: do not use for flight planning or navigation.
Latest weather
Observation time Sunday, February 1, 2015 7:00 AM WAT
Local time Sunday, February 1, 2015 11:08 AM WAT
Flight conditions Visual Meteorological Conditions
Winds
Wind speed calm
Visibility 6.2 mi.
Sky condition
Ceiling unlimited
Sky clear
Temperature 66°F
Dewpoint 37°F
Altimeter 29.91 in.Hg
Derived measurements
Relative humidity 35%
Density altitude 1019 ft.
Remarks
Ceiling and visibility OK.
METAR FTTD 010600Z 00000KT CAVOK 19/03 Q1013

Settings

Location code

InnerDrive.Weather 4.0.5505.0 Release CLR 4.0.30319.34014
Copyright ©2015 Inner Drive Technology. All rights reserved. Portions Copyright ©1986-2015 David Braverman.

Find weather

Site navigation


Skip Navigation Links

Place info

Page info

PayPal - The safer, easier way to pay online!

Return home.

Copyright ©2015 Inner Drive Technology. Purveyors of fine, hand-crafted computer software. Page printed 2015-02-01T10:08:40 UTC.